Florence, OR

11:04 AM PDT on October 01, 2016 (GMT -0700)
Collard Lake | | Change Station

Elev 174 ft 44.04 °N, 124.08 °W | Updated 46 seconds ago

Overcast
Overcast
56.7 °F
Feels Like 56.7 °F
N
4.7
Wind Variable Wind from West

Today
High -- | Low -- °F
--% Chance of Precip.
Yesterday
High -- | Low -- °F
Precip. -- in
Pressure 30.03 in
Visibility 10.0 miles
Clouds Overcast 1000 ft
Dew Point 54 °F
Humidity 91%
Rainfall 0.13 in
Snow Depth Not available.
7:14 AM 6:55 PM
New Moon, 1% visible
METAR KONP 011755Z AUTO 19014G21KT 10SM OVC010 13/12 A3003 RMK AO2
Pressure 30.03 in
Visibility 10.0 miles
Clouds Overcast 1000 ft
Dew Point 54 °F
Humidity 91%
Rainfall 0.13 in
Snow Depth Not available.
7:14 AM 6:55 PM
New Moon, 1% visible
METAR KONP 011755Z AUTO 19014G21KT 10SM OVC010 13/12 A3003 RMK AO2

10-Day Weather Forecast

Almanac

Astronomy

Oct. 01, 2016 Rise Set
Actual Time
Civil Twilight
Nautical Twilight
Astronomical Twilight
Moon
Length of Visible Light
Length of Day
Tomorrow will be .
, % of the Moon is Illuminated

Today's Extremes

State Highs State Lows

Community

WunderPhotos

Upload Photos

1,942,974 photos uploaded!

WunderBlog® & News

Nearby

Air Quality

  Air Quality AQ Index Pollutant
Not available.

Snow Depth

Station Depth Elevation

Earthquake Activity

City Distance Mag. Time & Date
Minimum magnitude displayed is 2.5.

Coastal Water Temperatures

Place Temperature

Stations

Nearby Weather Stations

Station Location Temp. Windchill Dew Point Humidity Wind Precip. Elev Updated Type
                   

Watches & Warnings

There are currently no watches in effect.